sensor_id;sensor_type;location;lat;lon;timestamp;P1;durP1;ratioP1;P2;durP2;ratioP2
54177;SDS011;40085;53.004;6.770;2023-01-09T00:01:14;0.95;;;0.80;;
54177;SDS011;40085;53.004;6.770;2023-01-09T00:03:43;4.85;;;0.93;;
54177;SDS011;40085;53.004;6.770;2023-01-09T00:06:09;1.45;;;1.05;;
54177;SDS011;40085;53.004;6.770;2023-01-09T00:08:35;3.63;;;0.70;;
54177;SDS011;40085;53.004;6.770;2023-01-09T00:11:01;1.85;;;0.85;;
54177;SDS011;40085;53.004;6.770;2023-01-09T00:13:26;3.22;;;1.70;;
54177;SDS011;40085;53.004;6.770;2023-01-09T00:15:52;2.05;;;1.10;;
54177;SDS011;40085;53.004;6.770;2023-01-09T00:18:17;1.90;;;0.90;;
54177;SDS011;40085;53.004;6.770;2023-01-09T00:20:43;1.75;;;0.68;;
54177;SDS011;40085;53.004;6.770;2023-01-09T00:23:09;1.35;;;0.77;;
54177;SDS011;40085;53.004;6.770;2023-01-09T00:25:34;0.93;;;0.52;;
54177;SDS011;40085;53.004;6.770;2023-01-09T00:28:00;2.03;;;0.63;;
54177;SDS011;40085;53.004;6.770;2023-01-09T00:30:26;1.02;;;0.57;;
54177;SDS011;40085;53.004;6.770;2023-01-09T00:32:52;1.48;;;0.55;;
54177;SDS011;40085;53.004;6.770;2023-01-09T00:35:19;1.48;;;0.73;;
54177;SDS011;40085;53.004;6.770;2023-01-09T00:37:47;4.53;;;0.57;;
54177;SDS011;40085;53.004;6.770;2023-01-09T00:40:13;1.10;;;0.52;;
54177;SDS011;40085;53.004;6.770;2023-01-09T00:42:41;1.85;;;0.50;;
54177;SDS011;40085;53.004;6.770;2023-01-09T00:45:10;3.40;;;1.00;;
54177;SDS011;40085;53.004;6.770;2023-01-09T00:47:45;1.55;;;0.77;;
54177;SDS011;40085;53.004;6.770;2023-01-09T00:50:15;2.05;;;0.80;;
54177;SDS011;40085;53.004;6.770;2023-01-09T00:52:44;0.70;;;0.57;;
54177;SDS011;40085;53.004;6.770;2023-01-09T00:55:11;1.27;;;0.77;;
54177;SDS011;40085;53.004;6.770;2023-01-09T00:57:38;1.30;;;0.75;;
54177;SDS011;40085;53.004;6.770;2023-01-09T01:00:04;2.67;;;0.73;;
54177;SDS011;40085;53.004;6.770;2023-01-09T01:02:31;3.05;;;0.82;;
54177;SDS011;40085;53.004;6.770;2023-01-09T01:04:56;1.15;;;0.68;;
54177;SDS011;40085;53.004;6.770;2023-01-09T01:07:41;1.38;;;0.55;;
54177;SDS011;40085;53.004;6.770;2023-01-09T01:10:17;3.03;;;0.73;;
54177;SDS011;40085;53.004;6.770;2023-01-09T01:12:45;2.67;;;0.47;;
54177;SDS011;40085;53.004;6.770;2023-01-09T01:15:12;1.15;;;0.63;;
54177;SDS011;40085;53.004;6.770;2023-01-09T01:17:38;0.60;;;0.30;;
54177;SDS011;40085;53.004;6.770;2023-01-09T01:20:06;0.45;;;0.40;;
54177;SDS011;40085;53.004;6.770;2023-01-09T01:22:33;0.40;;;0.40;;
54177;SDS011;40085;53.004;6.770;2023-01-09T01:24:59;1.05;;;0.55;;
54177;SDS011;40085;53.004;6.770;2023-01-09T01:27:26;0.45;;;0.30;;
54177;SDS011;40085;53.004;6.770;2023-01-09T01:29:52;1.15;;;0.40;;
54177;SDS011;40085;53.004;6.770;2023-01-09T01:32:17;0.43;;;0.32;;
54177;SDS011;40085;53.004;6.770;2023-01-09T01:34:43;0.52;;;0.38;;
54177;SDS011;40085;53.004;6.770;2023-01-09T01:37:09;0.40;;;0.40;;
54177;SDS011;40085;53.004;6.770;2023-01-09T01:39:34;0.75;;;0.20;;
54177;SDS011;40085;53.004;6.770;2023-01-09T01:42:01;0.20;;;0.20;;
54177;SDS011;40085;53.004;6.770;2023-01-09T01:47:29;1.55;;;0.30;;
54177;SDS011;40085;53.004;6.770;2023-01-09T01:50:28;0.10;;;0.10;;
54177;SDS011;40085;53.004;6.770;2023-01-09T01:53:00;0.30;;;0.20;;
54177;SDS011;40085;53.004;6.770;2023-01-09T01:55:27;0.20;;;0.20;;
54177;SDS011;40085;53.004;6.770;2023-01-09T01:57:55;0.20;;;0.20;;
54177;SDS011;40085;53.004;6.770;2023-01-09T02:00:27;0.20;;;0.20;;
54177;SDS011;40085;53.004;6.770;2023-01-09T02:02:56;1.00;;;0.30;;
54177;SDS011;40085;53.004;6.770;2023-01-09T02:05:23;0.40;;;0.30;;
54177;SDS011;40085;53.004;6.770;2023-01-09T02:07:48;0.98;;;0.43;;
54177;SDS011;40085;53.004;6.770;2023-01-09T02:10:14;0.52;;;0.20;;
54177;SDS011;40085;53.004;6.770;2023-01-09T02:12:40;1.10;;;0.40;;
54177;SDS011;40085;53.004;6.770;2023-01-09T02:15:07;0.75;;;0.30;;
54177;SDS011;40085;53.004;6.770;2023-01-09T02:28:52;2.25;;;0.68;;
54177;SDS011;40085;53.004;6.770;2023-01-09T02:31:45;0.43;;;0.32;;
54177;SDS011;40085;53.004;6.770;2023-01-09T02:34:25;0.82;;;0.50;;
54177;SDS011;40085;53.004;6.770;2023-01-09T02:42:43;0.75;;;0.50;;
54177;SDS011;40085;53.004;6.770;2023-01-09T02:44:51;1.02;;;0.52;;
54177;SDS011;40085;53.004;6.770;2023-01-09T02:49:46;2.75;;;0.70;;
54177;SDS011;40085;53.004;6.770;2023-01-09T02:58:09;1.13;;;1.02;;
54177;SDS011;40085;53.004;6.770;2023-01-09T03:06:42;0.93;;;0.60;;
54177;SDS011;40085;53.004;6.770;2023-01-09T03:09:23;2.33;;;1.08;;
54177;SDS011;40085;53.004;6.770;2023-01-09T03:11:59;2.20;;;1.00;;
54177;SDS011;40085;53.004;6.770;2023-01-09T03:17:25;1.60;;;0.85;;
54177;SDS011;40085;53.004;6.770;2023-01-09T03:19:56;1.60;;;0.75;;
54177;SDS011;40085;53.004;6.770;2023-01-09T03:22:23;1.00;;;0.80;;
54177;SDS011;40085;53.004;6.770;2023-01-09T03:24:49;4.32;;;1.10;;
54177;SDS011;40085;53.004;6.770;2023-01-09T03:27:14;1.48;;;0.90;;
54177;SDS011;40085;53.004;6.770;2023-01-09T03:29:40;2.53;;;1.15;;
54177;SDS011;40085;53.004;6.770;2023-01-09T03:32:06;1.80;;;0.90;;
54177;SDS011;40085;53.004;6.770;2023-01-09T03:34:31;1.75;;;0.85;;
54177;SDS011;40085;53.004;6.770;2023-01-09T03:36:57;1.00;;;0.63;;
54177;SDS011;40085;53.004;6.770;2023-01-09T03:39:22;2.05;;;0.98;;
54177;SDS011;40085;53.004;6.770;2023-01-09T03:41:48;1.80;;;0.80;;
54177;SDS011;40085;53.004;6.770;2023-01-09T03:44:13;1.65;;;0.98;;
54177;SDS011;40085;53.004;6.770;2023-01-09T03:46:39;1.95;;;0.77;;
54177;SDS011;40085;53.004;6.770;2023-01-09T03:49:05;3.42;;;1.00;;
54177;SDS011;40085;53.004;6.770;2023-01-09T03:51:30;1.05;;;0.90;;
54177;SDS011;40085;53.004;6.770;2023-01-09T03:53:56;2.45;;;1.25;;
54177;SDS011;40085;53.004;6.770;2023-01-09T03:56:22;2.35;;;0.88;;
54177;SDS011;40085;53.004;6.770;2023-01-09T03:58:47;6.78;;;1.35;;
54177;SDS011;40085;53.004;6.770;2023-01-09T04:01:14;1.73;;;1.00;;
54177;SDS011;40085;53.004;6.770;2023-01-09T04:03:40;2.05;;;0.90;;
54177;SDS011;40085;53.004;6.770;2023-01-09T04:06:05;2.83;;;1.00;;
54177;SDS011;40085;53.004;6.770;2023-01-09T04:08:31;4.93;;;1.10;;
54177;SDS011;40085;53.004;6.770;2023-01-09T04:10:57;3.30;;;1.15;;
54177;SDS011;40085;53.004;6.770;2023-01-09T04:13:23;1.90;;;1.02;;
54177;SDS011;40085;53.004;6.770;2023-01-09T04:15:48;2.08;;;1.05;;
54177;SDS011;40085;53.004;6.770;2023-01-09T04:18:14;2.95;;;1.20;;
54177;SDS011;40085;53.004;6.770;2023-01-09T04:20:40;3.80;;;1.10;;
54177;SDS011;40085;53.004;6.770;2023-01-09T04:23:06;1.60;;;0.60;;
54177;SDS011;40085;53.004;6.770;2023-01-09T04:25:32;2.45;;;1.05;;
54177;SDS011;40085;53.004;6.770;2023-01-09T04:27:57;4.63;;;1.02;;
54177;SDS011;40085;53.004;6.770;2023-01-09T04:30:23;2.08;;;1.40;;
54177;SDS011;40085;53.004;6.770;2023-01-09T04:32:49;2.65;;;1.20;;
54177;SDS011;40085;53.004;6.770;2023-01-09T04:35:16;2.60;;;1.20;;
54177;SDS011;40085;53.004;6.770;2023-01-09T04:37:43;3.58;;;1.30;;
54177;SDS011;40085;53.004;6.770;2023-01-09T04:40:09;2.78;;;1.48;;
54177;SDS011;40085;53.004;6.770;2023-01-09T04:42:36;4.72;;;1.48;;
54177;SDS011;40085;53.004;6.770;2023-01-09T04:45:02;2.13;;;1.00;;
54177;SDS011;40085;53.004;6.770;2023-01-09T04:47:29;5.18;;;1.85;;
54177;SDS011;40085;53.004;6.770;2023-01-09T04:49:57;2.55;;;1.50;;
54177;SDS011;40085;53.004;6.770;2023-01-09T04:52:24;3.95;;;1.92;;
54177;SDS011;40085;53.004;6.770;2023-01-09T04:54:49;2.95;;;1.88;;
54177;SDS011;40085;53.004;6.770;2023-01-09T04:57:15;4.07;;;2.38;;
54177;SDS011;40085;53.004;6.770;2023-01-09T04:59:41;3.08;;;1.65;;
54177;SDS011;40085;53.004;6.770;2023-01-09T05:02:06;3.58;;;2.15;;
54177;SDS011;40085;53.004;6.770;2023-01-09T05:04:32;6.22;;;2.10;;
54177;SDS011;40085;53.004;6.770;2023-01-09T05:06:57;3.70;;;1.98;;
54177;SDS011;40085;53.004;6.770;2023-01-09T05:09:23;5.07;;;3.03;;
54177;SDS011;40085;53.004;6.770;2023-01-09T05:11:49;5.50;;;2.95;;
54177;SDS011;40085;53.004;6.770;2023-01-09T05:14:14;4.43;;;2.50;;
54177;SDS011;40085;53.004;6.770;2023-01-09T05:16:40;4.68;;;2.80;;
54177;SDS011;40085;53.004;6.770;2023-01-09T05:19:06;6.93;;;3.53;;
54177;SDS011;40085;53.004;6.770;2023-01-09T05:21:31;5.10;;;3.15;;
54177;SDS011;40085;53.004;6.770;2023-01-09T05:23:57;6.70;;;3.72;;
54177;SDS011;40085;53.004;6.770;2023-01-09T05:26:22;9.05;;;3.40;;
54177;SDS011;40085;53.004;6.770;2023-01-09T05:28:51;9.00;;;3.85;;
54177;SDS011;40085;53.004;6.770;2023-01-09T05:31:18;7.43;;;4.38;;
54177;SDS011;40085;53.004;6.770;2023-01-09T05:33:44;7.28;;;4.38;;
54177;SDS011;40085;53.004;6.770;2023-01-09T05:36:10;7.38;;;3.42;;
54177;SDS011;40085;53.004;6.770;2023-01-09T05:38:36;7.88;;;5.07;;
54177;SDS011;40085;53.004;6.770;2023-01-09T05:41:02;6.90;;;3.67;;
54177;SDS011;40085;53.004;6.770;2023-01-09T05:43:28;7.15;;;4.07;;
54177;SDS011;40085;53.004;6.770;2023-01-09T05:45:54;9.43;;;4.45;;
54177;SDS011;40085;53.004;6.770;2023-01-09T05:48:20;9.18;;;4.93;;
54177;SDS011;40085;53.004;6.770;2023-01-09T05:50:45;8.13;;;5.22;;
54177;SDS011;40085;53.004;6.770;2023-01-09T05:53:11;12.73;;;5.15;;
54177;SDS011;40085;53.004;6.770;2023-01-09T05:55:36;6.97;;;4.47;;
54177;SDS011;40085;53.004;6.770;2023-01-09T05:58:02;8.15;;;4.60;;
54177;SDS011;40085;53.004;6.770;2023-01-09T06:00:28;7.88;;;5.07;;
54177;SDS011;40085;53.004;6.770;2023-01-09T06:02:54;13.82;;;5.07;;
54177;SDS011;40085;53.004;6.770;2023-01-09T06:05:19;13.10;;;5.18;;
54177;SDS011;40085;53.004;6.770;2023-01-09T06:07:45;13.13;;;2.92;;
54177;SDS011;40085;53.004;6.770;2023-01-09T06:10:11;8.32;;;5.35;;
54177;SDS011;40085;53.004;6.770;2023-01-09T06:12:38;7.25;;;4.60;;
54177;SDS011;40085;53.004;6.770;2023-01-09T06:15:04;10.15;;;4.70;;
54177;SDS011;40085;53.004;6.770;2023-01-09T06:17:30;6.15;;;3.65;;
54177;SDS011;40085;53.004;6.770;2023-01-09T06:19:56;7.78;;;3.85;;
54177;SDS011;40085;53.004;6.770;2023-01-09T06:22:22;7.45;;;3.95;;
54177;SDS011;40085;53.004;6.770;2023-01-09T06:24:47;2.53;;;1.98;;
54177;SDS011;40085;53.004;6.770;2023-01-09T06:27:13;5.18;;;3.35;;
54177;SDS011;40085;53.004;6.770;2023-01-09T06:29:38;7.75;;;4.22;;
54177;SDS011;40085;53.004;6.770;2023-01-09T06:32:04;11.18;;;4.78;;
54177;SDS011;40085;53.004;6.770;2023-01-09T06:34:30;9.82;;;4.28;;
54177;SDS011;40085;53.004;6.770;2023-01-09T06:36:56;7.95;;;4.25;;
54177;SDS011;40085;53.004;6.770;2023-01-09T06:39:21;8.10;;;3.80;;
54177;SDS011;40085;53.004;6.770;2023-01-09T06:41:47;9.93;;;4.68;;
54177;SDS011;40085;53.004;6.770;2023-01-09T06:44:12;11.85;;;4.75;;
54177;SDS011;40085;53.004;6.770;2023-01-09T06:46:38;8.48;;;4.43;;
54177;SDS011;40085;53.004;6.770;2023-01-09T06:49:04;8.35;;;4.13;;
54177;SDS011;40085;53.004;6.770;2023-01-09T06:51:30;6.50;;;3.97;;
54177;SDS011;40085;53.004;6.770;2023-01-09T06:53:55;7.30;;;3.95;;
54177;SDS011;40085;53.004;6.770;2023-01-09T06:56:21;6.60;;;3.63;;
54177;SDS011;40085;53.004;6.770;2023-01-09T06:58:46;10.00;;;4.20;;
54177;SDS011;40085;53.004;6.770;2023-01-09T07:01:12;7.30;;;3.50;;
54177;SDS011;40085;53.004;6.770;2023-01-09T07:03:38;4.88;;;3.10;;
54177;SDS011;40085;53.004;6.770;2023-01-09T07:06:03;4.15;;;3.05;;
54177;SDS011;40085;53.004;6.770;2023-01-09T07:08:30;5.53;;;2.55;;
54177;SDS011;40085;53.004;6.770;2023-01-09T07:10:55;6.00;;;2.90;;
54177;SDS011;40085;53.004;6.770;2023-01-09T07:13:21;3.97;;;1.95;;
54177;SDS011;40085;53.004;6.770;2023-01-09T07:15:47;7.60;;;2.97;;
54177;SDS011;40085;53.004;6.770;2023-01-09T07:18:14;5.57;;;2.60;;
54177;SDS011;40085;53.004;6.770;2023-01-09T07:20:39;4.78;;;2.70;;
54177;SDS011;40085;53.004;6.770;2023-01-09T07:23:06;5.35;;;2.72;;
54177;SDS011;40085;53.004;6.770;2023-01-09T07:25:35;5.05;;;2.70;;
54177;SDS011;40085;53.004;6.770;2023-01-09T07:28:00;8.05;;;2.83;;
54177;SDS011;40085;53.004;6.770;2023-01-09T07:30:26;3.55;;;2.30;;
54177;SDS011;40085;53.004;6.770;2023-01-09T07:32:51;3.95;;;2.33;;
54177;SDS011;40085;53.004;6.770;2023-01-09T07:35:17;4.97;;;2.45;;
54177;SDS011;40085;53.004;6.770;2023-01-09T07:37:42;4.70;;;2.33;;
54177;SDS011;40085;53.004;6.770;2023-01-09T07:40:10;7.03;;;1.98;;
54177;SDS011;40085;53.004;6.770;2023-01-09T07:42:36;4.90;;;2.17;;
54177;SDS011;40085;53.004;6.770;2023-01-09T07:45:01;3.65;;;1.95;;
54177;SDS011;40085;53.004;6.770;2023-01-09T07:47:27;3.60;;;2.13;;
54177;SDS011;40085;53.004;6.770;2023-01-09T07:49:52;4.22;;;2.72;;
54177;SDS011;40085;53.004;6.770;2023-01-09T07:52:18;3.40;;;2.15;;
54177;SDS011;40085;53.004;6.770;2023-01-09T07:54:43;2.72;;;1.65;;
54177;SDS011;40085;53.004;6.770;2023-01-09T07:57:09;2.78;;;1.52;;
54177;SDS011;40085;53.004;6.770;2023-01-09T07:59:34;4.38;;;2.40;;
54177;SDS011;40085;53.004;6.770;2023-01-09T08:02:00;3.33;;;2.30;;
54177;SDS011;40085;53.004;6.770;2023-01-09T08:04:29;3.50;;;1.90;;
54177;SDS011;40085;53.004;6.770;2023-01-09T08:06:55;4.80;;;2.10;;
54177;SDS011;40085;53.004;6.770;2023-01-09T08:09:21;7.72;;;2.35;;
54177;SDS011;40085;53.004;6.770;2023-01-09T08:11:46;2.85;;;1.90;;
54177;SDS011;40085;53.004;6.770;2023-01-09T08:14:12;7.78;;;2.28;;
54177;SDS011;40085;53.004;6.770;2023-01-09T08:16:38;5.80;;;1.98;;
54177;SDS011;40085;53.004;6.770;2023-01-09T08:19:03;3.90;;;2.15;;
54177;SDS011;40085;53.004;6.770;2023-01-09T08:21:29;3.65;;;1.90;;
54177;SDS011;40085;53.004;6.770;2023-01-09T08:23:54;2.58;;;1.75;;
54177;SDS011;40085;53.004;6.770;2023-01-09T08:26:20;4.35;;;1.88;;
54177;SDS011;40085;53.004;6.770;2023-01-09T08:28:46;3.42;;;1.67;;
54177;SDS011;40085;53.004;6.770;2023-01-09T08:31:12;3.47;;;1.60;;
54177;SDS011;40085;53.004;6.770;2023-01-09T08:33:38;3.78;;;1.80;;
54177;SDS011;40085;53.004;6.770;2023-01-09T08:36:04;5.85;;;2.25;;
54177;SDS011;40085;53.004;6.770;2023-01-09T08:38:30;5.22;;;1.30;;
54177;SDS011;40085;53.004;6.770;2023-01-09T08:40:55;4.53;;;1.77;;
54177;SDS011;40085;53.004;6.770;2023-01-09T08:43:21;2.65;;;1.40;;
54177;SDS011;40085;53.004;6.770;2023-01-09T08:46:05;4.00;;;1.80;;
54177;SDS011;40085;53.004;6.770;2023-01-09T08:49:00;3.75;;;1.70;;
54177;SDS011;40085;53.004;6.770;2023-01-09T08:51:26;1.60;;;1.10;;
54177;SDS011;40085;53.004;6.770;2023-01-09T08:53:51;1.95;;;1.40;;
54177;SDS011;40085;53.004;6.770;2023-01-09T08:56:17;4.10;;;1.63;;
54177;SDS011;40085;53.004;6.770;2023-01-09T08:58:42;6.10;;;1.90;;
54177;SDS011;40085;53.004;6.770;2023-01-09T09:01:08;3.22;;;0.98;;
54177;SDS011;40085;53.004;6.770;2023-01-09T09:03:34;5.10;;;1.90;;
54177;SDS011;40085;53.004;6.770;2023-01-09T09:06:00;2.97;;;1.30;;
54177;SDS011;40085;53.004;6.770;2023-01-09T09:08:25;3.22;;;1.38;;
54177;SDS011;40085;53.004;6.770;2023-01-09T09:10:51;4.97;;;1.50;;
54177;SDS011;40085;53.004;6.770;2023-01-09T09:13:16;2.70;;;1.48;;
54177;SDS011;40085;53.004;6.770;2023-01-09T09:15:42;3.35;;;1.60;;
54177;SDS011;40085;53.004;6.770;2023-01-09T09:18:08;1.35;;;1.17;;
54177;SDS011;40085;53.004;6.770;2023-01-09T09:20:34;4.68;;;1.38;;
54177;SDS011;40085;53.004;6.770;2023-01-09T09:23:01;6.80;;;1.42;;
54177;SDS011;40085;53.004;6.770;2023-01-09T09:25:27;4.07;;;1.35;;
54177;SDS011;40085;53.004;6.770;2023-01-09T09:27:53;3.13;;;1.60;;
54177;SDS011;40085;53.004;6.770;2023-01-09T09:30:20;3.55;;;1.40;;
54177;SDS011;40085;53.004;6.770;2023-01-09T09:32:46;8.75;;;1.58;;
54177;SDS011;40085;53.004;6.770;2023-01-09T09:35:13;1.92;;;1.08;;
54177;SDS011;40085;53.004;6.770;2023-01-09T09:37:41;2.70;;;1.27;;
54177;SDS011;40085;53.004;6.770;2023-01-09T09:40:16;4.05;;;1.10;;
54177;SDS011;40085;53.004;6.770;2023-01-09T09:42:59;2.90;;;1.30;;
54177;SDS011;40085;53.004;6.770;2023-01-09T09:45:53;5.68;;;1.20;;
54177;SDS011;40085;53.004;6.770;2023-01-09T09:48:34;2.53;;;1.20;;
54177;SDS011;40085;53.004;6.770;2023-01-09T09:54:03;2.28;;;1.15;;
54177;SDS011;40085;53.004;6.770;2023-01-09T09:56:34;2.47;;;1.15;;
54177;SDS011;40085;53.004;6.770;2023-01-09T09:59:17;4.32;;;2.05;;
54177;SDS011;40085;53.004;6.770;2023-01-09T10:01:50;3.13;;;1.30;;
54177;SDS011;40085;53.004;6.770;2023-01-09T10:04:23;1.65;;;1.00;;
54177;SDS011;40085;53.004;6.770;2023-01-09T10:06:53;7.97;;;1.70;;
54177;SDS011;40085;53.004;6.770;2023-01-09T10:14:35;3.60;;;1.55;;
54177;SDS011;40085;53.004;6.770;2023-01-09T10:25:50;5.50;;;1.23;;
54177;SDS011;40085;53.004;6.770;2023-01-09T10:28:49;1.40;;;1.13;;
54177;SDS011;40085;53.004;6.770;2023-01-09T10:39:40;4.45;;;1.23;;
54177;SDS011;40085;53.004;6.770;2023-01-09T10:42:28;1.92;;;1.23;;
54177;SDS011;40085;53.004;6.770;2023-01-09T10:45:13;4.47;;;1.38;;
54177;SDS011;40085;53.004;6.770;2023-01-09T10:47:55;1.30;;;0.98;;
54177;SDS011;40085;53.004;6.770;2023-01-09T10:50:28;2.45;;;1.30;;
54177;SDS011;40085;53.004;6.770;2023-01-09T10:52:58;4.38;;;1.15;;
54177;SDS011;40085;53.004;6.770;2023-01-09T10:58:00;2.95;;;1.38;;
54177;SDS011;40085;53.004;6.770;2023-01-09T11:00:28;1.60;;;1.10;;
54177;SDS011;40085;53.004;6.770;2023-01-09T11:02:54;1.65;;;0.90;;
54177;SDS011;40085;53.004;6.770;2023-01-09T11:05:21;3.33;;;1.27;;
54177;SDS011;40085;53.004;6.770;2023-01-09T11:08:00;6.72;;;1.55;;
54177;SDS011;40085;53.004;6.770;2023-01-09T11:13:18;1.40;;;1.05;;
54177;SDS011;40085;53.004;6.770;2023-01-09T11:18:47;2.90;;;1.00;;
54177;SDS011;40085;53.004;6.770;2023-01-09T11:23:50;1.60;;;1.10;;
54177;SDS011;40085;53.004;6.770;2023-01-09T11:26:23;3.60;;;1.17;;
54177;SDS011;40085;53.004;6.770;2023-01-09T11:29:03;1.83;;;1.33;;
54177;SDS011;40085;53.004;6.770;2023-01-09T11:31:30;2.15;;;1.38;;
54177;SDS011;40085;53.004;6.770;2023-01-09T11:33:56;2.45;;;1.08;;
54177;SDS011;40085;53.004;6.770;2023-01-09T11:36:22;4.28;;;1.75;;
54177;SDS011;40085;53.004;6.770;2023-01-09T11:38:56;2.25;;;1.30;;
54177;SDS011;40085;53.004;6.770;2023-01-09T11:41:24;2.00;;;1.40;;
54177;SDS011;40085;53.004;6.770;2023-01-09T11:43:59;3.10;;;1.50;;
54177;SDS011;40085;53.004;6.770;2023-01-09T11:46:36;2.60;;;1.50;;
54177;SDS011;40085;53.004;6.770;2023-01-09T11:51:39;2.63;;;1.63;;
54177;SDS011;40085;53.004;6.770;2023-01-09T11:56:42;3.10;;;1.17;;
54177;SDS011;40085;53.004;6.770;2023-01-09T11:59:12;1.77;;;1.27;;
54177;SDS011;40085;53.004;6.770;2023-01-09T12:01:52;5.10;;;1.75;;
54177;SDS011;40085;53.004;6.770;2023-01-09T12:04:28;1.98;;;1.38;;
54177;SDS011;40085;53.004;6.770;2023-01-09T12:10:32;3.30;;;1.75;;
54177;SDS011;40085;53.004;6.770;2023-01-09T12:12:49;6.45;;;1.80;;
54177;SDS011;40085;53.004;6.770;2023-01-09T12:45:16;3.00;;;1.70;;
54177;SDS011;40085;53.004;6.770;2023-01-09T12:51:08;3.72;;;1.98;;
54177;SDS011;40085;53.004;6.770;2023-01-09T12:53:40;3.70;;;2.10;;
54177;SDS011;40085;53.004;6.770;2023-01-09T12:56:14;4.38;;;2.10;;
54177;SDS011;40085;53.004;6.770;2023-01-09T12:58:57;4.85;;;2.28;;
54177;SDS011;40085;53.004;6.770;2023-01-09T13:01:31;2.72;;;1.60;;
54177;SDS011;40085;53.004;6.770;2023-01-09T13:04:13;2.78;;;1.73;;
54177;SDS011;40085;53.004;6.770;2023-01-09T13:06:51;4.43;;;2.00;;
54177;SDS011;40085;53.004;6.770;2023-01-09T13:09:25;3.67;;;2.08;;
54177;SDS011;40085;53.004;6.770;2023-01-09T13:12:06;4.60;;;2.05;;
54177;SDS011;40085;53.004;6.770;2023-01-09T13:14:45;5.68;;;2.08;;
54177;SDS011;40085;53.004;6.770;2023-01-09T13:17:13;3.03;;;2.00;;
54177;SDS011;40085;53.004;6.770;2023-01-09T13:19:43;5.10;;;2.30;;
54177;SDS011;40085;53.004;6.770;2023-01-09T13:22:10;3.67;;;2.05;;
54177;SDS011;40085;53.004;6.770;2023-01-09T13:24:50;2.92;;;1.88;;
54177;SDS011;40085;53.004;6.770;2023-01-09T13:27:26;5.22;;;2.28;;
54177;SDS011;40085;53.004;6.770;2023-01-09T13:30:02;3.95;;;1.90;;
54177;SDS011;40085;53.004;6.770;2023-01-09T13:35:30;3.75;;;1.98;;
54177;SDS011;40085;53.004;6.770;2023-01-09T13:37:56;5.70;;;2.25;;
54177;SDS011;40085;53.004;6.770;2023-01-09T13:43:00;6.68;;;2.35;;
54177;SDS011;40085;53.004;6.770;2023-01-09T13:45:29;3.40;;;2.17;;
54177;SDS011;40085;53.004;6.770;2023-01-09T13:50:39;5.38;;;2.40;;
54177;SDS011;40085;53.004;6.770;2023-01-09T13:56:05;5.95;;;2.85;;
54177;SDS011;40085;53.004;6.770;2023-01-09T13:58:55;5.47;;;3.00;;
54177;SDS011;40085;53.004;6.770;2023-01-09T14:06:37;6.05;;;3.15;;
54177;SDS011;40085;53.004;6.770;2023-01-09T14:09:08;6.57;;;3.30;;
54177;SDS011;40085;53.004;6.770;2023-01-09T14:11:43;5.97;;;3.40;;
54177;SDS011;40085;53.004;6.770;2023-01-09T14:14:21;6.25;;;3.22;;
54177;SDS011;40085;53.004;6.770;2023-01-09T14:16:53;5.75;;;3.55;;
54177;SDS011;40085;53.004;6.770;2023-01-09T14:19:25;9.07;;;3.88;;
54177;SDS011;40085;53.004;6.770;2023-01-09T14:21:57;7.35;;;3.08;;
54177;SDS011;40085;53.004;6.770;2023-01-09T14:24:25;7.43;;;3.10;;
54177;SDS011;40085;53.004;6.770;2023-01-09T14:35:47;5.17;;;3.30;;
54177;SDS011;40085;53.004;6.770;2023-01-09T14:38:25;5.80;;;3.58;;
54177;SDS011;40085;53.004;6.770;2023-01-09T14:41:03;6.32;;;2.92;;
54177;SDS011;40085;53.004;6.770;2023-01-09T14:46:17;10.18;;;2.83;;
54177;SDS011;40085;53.004;6.770;2023-01-09T14:48:56;4.65;;;2.78;;
54177;SDS011;40085;53.004;6.770;2023-01-09T14:51:27;3.50;;;2.30;;
54177;SDS011;40085;53.004;6.770;2023-01-09T14:53:55;3.17;;;1.88;;
54177;SDS011;40085;53.004;6.770;2023-01-09T14:56:28;6.18;;;2.47;;
54177;SDS011;40085;53.004;6.770;2023-01-09T14:59:04;2.80;;;1.52;;
54177;SDS011;40085;53.004;6.770;2023-01-09T15:01:35;5.32;;;2.10;;
54177;SDS011;40085;53.004;6.770;2023-01-09T15:04:03;4.93;;;2.40;;
54177;SDS011;40085;53.004;6.770;2023-01-09T15:06:35;4.13;;;2.00;;
54177;SDS011;40085;53.004;6.770;2023-01-09T15:09:27;6.22;;;2.20;;
54177;SDS011;40085;53.004;6.770;2023-01-09T15:11:57;5.65;;;1.65;;
54177;SDS011;40085;53.004;6.770;2023-01-09T15:17:05;4.20;;;1.70;;
54177;SDS011;40085;53.004;6.770;2023-01-09T15:19:43;5.30;;;1.67;;
54177;SDS011;40085;53.004;6.770;2023-01-09T15:22:19;5.72;;;1.88;;
54177;SDS011;40085;53.004;6.770;2023-01-09T15:24:45;8.40;;;2.00;;
54177;SDS011;40085;53.004;6.770;2023-01-09T15:27:11;4.00;;;1.77;;
54177;SDS011;40085;53.004;6.770;2023-01-09T15:29:45;7.88;;;1.77;;
54177;SDS011;40085;53.004;6.770;2023-01-09T15:32:25;4.00;;;1.67;;
54177;SDS011;40085;53.004;6.770;2023-01-09T15:34:53;5.78;;;1.40;;
54177;SDS011;40085;53.004;6.770;2023-01-09T15:39:59;11.85;;;1.73;;
54177;SDS011;40085;53.004;6.770;2023-01-09T15:42:32;6.78;;;1.33;;
54177;SDS011;40085;53.004;6.770;2023-01-09T15:45:24;5.03;;;1.20;;
54177;SDS011;40085;53.004;6.770;2023-01-09T15:50:52;7.40;;;1.30;;
54177;SDS011;40085;53.004;6.770;2023-01-09T15:53:29;4.78;;;1.63;;
54177;SDS011;40085;53.004;6.770;2023-01-09T15:58:32;3.97;;;1.33;;
54177;SDS011;40085;53.004;6.770;2023-01-09T16:01:00;2.50;;;0.80;;
54177;SDS011;40085;53.004;6.770;2023-01-09T16:03:30;0.98;;;0.57;;
54177;SDS011;40085;53.004;6.770;2023-01-09T16:06:00;4.28;;;0.80;;
54177;SDS011;40085;53.004;6.770;2023-01-09T16:08:36;4.88;;;0.50;;
54177;SDS011;40085;53.004;6.770;2023-01-09T16:11:04;2.40;;;0.90;;
54177;SDS011;40085;53.004;6.770;2023-01-09T16:13:36;3.38;;;0.93;;
54177;SDS011;40085;53.004;6.770;2023-01-09T16:16:07;1.10;;;0.80;;
54177;SDS011;40085;53.004;6.770;2023-01-09T16:18:34;2.33;;;0.40;;
54177;SDS011;40085;53.004;6.770;2023-01-09T16:21:02;2.65;;;0.90;;
54177;SDS011;40085;53.004;6.770;2023-01-09T16:23:50;4.32;;;0.45;;
54177;SDS011;40085;53.004;6.770;2023-01-09T16:26:29;2.75;;;0.82;;
54177;SDS011;40085;53.004;6.770;2023-01-09T16:28:55;4.57;;;0.63;;
54177;SDS011;40085;53.004;6.770;2023-01-09T16:31:41;3.45;;;1.27;;
54177;SDS011;40085;53.004;6.770;2023-01-09T16:34:09;2.28;;;0.95;;
54177;SDS011;40085;53.004;6.770;2023-01-09T16:36:36;2.35;;;0.90;;
54177;SDS011;40085;53.004;6.770;2023-01-09T16:39:02;1.88;;;0.98;;
54177;SDS011;40085;53.004;6.770;2023-01-09T16:41:31;1.25;;;0.68;;
54177;SDS011;40085;53.004;6.770;2023-01-09T16:44:16;2.75;;;1.00;;
54177;SDS011;40085;53.004;6.770;2023-01-09T16:46:43;3.33;;;1.05;;
54177;SDS011;40085;53.004;6.770;2023-01-09T16:49:16;2.38;;;0.95;;
54177;SDS011;40085;53.004;6.770;2023-01-09T16:51:42;1.80;;;1.05;;
54177;SDS011;40085;53.004;6.770;2023-01-09T16:54:08;2.28;;;1.40;;
54177;SDS011;40085;53.004;6.770;2023-01-09T16:56:33;4.50;;;1.35;;
54177;SDS011;40085;53.004;6.770;2023-01-09T16:59:00;2.58;;;0.90;;
54177;SDS011;40085;53.004;6.770;2023-01-09T17:01:26;1.73;;;0.65;;
54177;SDS011;40085;53.004;6.770;2023-01-09T17:03:51;4.78;;;1.20;;
54177;SDS011;40085;53.004;6.770;2023-01-09T17:08:48;7.82;;;1.48;;
54177;SDS011;40085;53.004;6.770;2023-01-09T17:11:25;5.35;;;2.03;;
54177;SDS011;40085;53.004;6.770;2023-01-09T17:14:04;3.60;;;1.52;;
54177;SDS011;40085;53.004;6.770;2023-01-09T17:16:32;2.20;;;1.25;;
54177;SDS011;40085;53.004;6.770;2023-01-09T17:18:59;3.10;;;1.35;;
54177;SDS011;40085;53.004;6.770;2023-01-09T17:21:26;6.53;;;1.63;;
54177;SDS011;40085;53.004;6.770;2023-01-09T17:23:55;9.10;;;1.80;;
54177;SDS011;40085;53.004;6.770;2023-01-09T17:26:44;6.45;;;1.88;;
54177;SDS011;40085;53.004;6.770;2023-01-09T17:29:31;5.85;;;1.52;;
54177;SDS011;40085;53.004;6.770;2023-01-09T17:31:58;5.55;;;2.65;;
54177;SDS011;40085;53.004;6.770;2023-01-09T17:34:24;7.80;;;3.42;;
54177;SDS011;40085;53.004;6.770;2023-01-09T17:36:49;8.55;;;3.03;;